createdAt,value
2023-05-17T00:01:03.649Z,55.86
2023-05-17T00:04:06.439Z,56.47
2023-05-17T00:07:08.989Z,56.90
2023-05-17T00:10:13.152Z,56.81
2023-05-17T00:13:15.662Z,57.66
2023-05-17T00:16:18.234Z,57.62
2023-05-17T00:19:21.017Z,58.18
2023-05-17T00:22:23.833Z,57.92
2023-05-17T00:25:27.872Z,58.50
2023-05-17T00:28:30.855Z,58.97
2023-05-17T00:31:33.556Z,59.93
2023-05-17T00:34:36.231Z,59.70
2023-05-17T00:37:39.222Z,59.96
2023-05-17T00:40:43.594Z,60.17
2023-05-17T00:43:46.247Z,60.75
2023-05-17T00:46:50.520Z,61.44
2023-05-17T00:49:53.288Z,61.22
2023-05-17T00:52:56.704Z,61.16
2023-05-17T00:56:01.019Z,60.88
2023-05-17T00:59:06.356Z,61.01
2023-05-17T01:02:09.370Z,60.69
2023-05-17T01:05:12.313Z,60.58
2023-05-17T01:08:15.069Z,60.43
2023-05-17T01:11:27.934Z,60.63
2023-05-17T01:14:40.041Z,60.65
2023-05-17T01:17:53.621Z,60.84
2023-05-17T01:20:59.815Z,60.97
2023-05-17T01:24:14.708Z,61.07
2023-05-17T01:27:19.988Z,61.67
2023-05-17T01:30:23.354Z,62.09
2023-05-17T01:33:26.912Z,62.04
2023-05-17T01:36:29.757Z,61.76
2023-05-17T01:39:32.431Z,61.44
2023-05-17T01:42:40.190Z,61.13
2023-05-17T01:45:45.371Z,61.44
2023-05-17T01:48:53.791Z,61.59
2023-05-17T01:51:59.312Z,60.77
2023-05-17T01:55:06.630Z,61.96
2023-05-17T01:58:12.049Z,62.26
2023-05-17T02:01:15.901Z,62.21
2023-05-17T02:04:19.906Z,62.66
2023-05-17T02:07:23.013Z,63.06
2023-05-17T02:10:26.122Z,62.23
2023-05-17T02:13:30.103Z,63.09
2023-05-17T02:16:32.680Z,62.28
2023-05-17T02:19:35.594Z,62.21
2023-05-17T02:22:38.947Z,62.72
2023-05-17T02:25:41.673Z,63.24
2023-05-17T02:28:45.636Z,62.26
2023-05-17T02:31:48.398Z,63.23
2023-05-17T02:34:50.982Z,63.26
2023-05-17T02:37:53.632Z,63.55
2023-05-17T02:40:56.273Z,64.17
2023-05-17T02:44:00.464Z,64.62
2023-05-17T02:47:03.107Z,64.40
2023-05-17T02:50:06.662Z,64.61
2023-05-17T02:53:09.633Z,64.43
2023-05-17T02:56:12.835Z,64.18
2023-05-17T02:59:16.920Z,65.16
2023-05-17T03:02:19.754Z,65.03
2023-05-17T03:05:22.516Z,65.37
2023-05-17T03:08:25.117Z,65.57
2023-05-17T03:11:27.907Z,66.16
2023-05-17T03:14:32.040Z,65.58
2023-05-17T03:17:34.715Z,65.59
2023-05-17T03:20:37.439Z,66.05
2023-05-17T03:23:40.093Z,66.61
2023-05-17T03:26:42.618Z,66.89
2023-05-17T03:29:47.235Z,66.61
2023-05-17T03:32:50.186Z,67.10
2023-05-17T03:35:53.016Z,66.81
2023-05-17T03:38:55.673Z,67.39
2023-05-17T03:41:58.814Z,67.92
2023-05-17T03:45:03.106Z,68.11
2023-05-17T03:48:06.424Z,68.82
2023-05-17T03:51:09.223Z,68.35
2023-05-17T03:54:12.266Z,67.71
2023-05-17T03:57:15.439Z,68.56
2023-05-17T04:00:21.950Z,67.77
2023-05-17T04:03:24.654Z,67.06
2023-05-17T04:06:27.273Z,67.35
2023-05-17T04:09:32.035Z,67.04
2023-05-17T04:12:35.165Z,67.60
2023-05-17T04:15:39.193Z,66.95
2023-05-17T04:18:42.087Z,66.85
2023-05-17T04:21:45.760Z,67.30
2023-05-17T04:24:48.411Z,66.66
2023-05-17T04:27:51.125Z,66.96
2023-05-17T04:30:55.196Z,66.47
2023-05-17T04:33:57.914Z,65.85
2023-05-17T04:37:00.639Z,65.26
2023-05-17T04:40:03.908Z,65.63
2023-05-17T04:43:06.655Z,65.46
2023-05-17T04:46:11.651Z,64.97
2023-05-17T04:49:14.256Z,65.16
2023-05-17T04:52:16.860Z,64.34
2023-05-17T04:55:19.500Z,63.87
2023-05-17T04:58:24.135Z,63.54
2023-05-17T05:01:29.559Z,61.77
2023-05-17T05:04:32.265Z,60.03
2023-05-17T05:07:35.032Z,59.73
2023-05-17T05:10:37.841Z,59.19
2023-05-17T05:13:41.792Z,58.33
2023-05-17T05:16:45.873Z,57.78
2023-05-17T05:19:48.678Z,57.21
2023-05-17T05:22:51.609Z,57.44
2023-05-17T05:25:54.230Z,56.72
2023-05-17T05:28:56.961Z,56.78
2023-05-17T05:32:01.092Z,55.93
2023-05-17T05:35:03.763Z,55.25
2023-05-17T05:38:06.400Z,54.72
2023-05-17T05:41:08.947Z,54.26
2023-05-17T05:44:11.675Z,53.53
2023-05-17T05:47:15.814Z,53.65
2023-05-17T05:50:18.394Z,53.78
2023-05-17T05:53:21.154Z,53.17
2023-05-17T05:56:25.662Z,53.26
2023-05-17T05:59:28.396Z,53.39
2023-05-17T06:02:32.519Z,53.11
2023-05-17T06:05:35.704Z,53.00
2023-05-17T06:08:38.309Z,53.61
2023-05-17T06:11:40.970Z,53.86
2023-05-17T06:14:43.633Z,54.14
2023-05-17T06:17:47.677Z,54.24
2023-05-17T06:20:50.377Z,53.61
2023-05-17T06:23:54.263Z,53.97
2023-05-17T06:26:56.908Z,54.06
2023-05-17T06:29:59.878Z,53.94
2023-05-17T06:33:06.454Z,54.17
2023-05-17T06:36:09.373Z,53.44
2023-05-17T06:39:12.096Z,54.04
2023-05-17T06:42:14.663Z,53.66
2023-05-17T06:45:17.221Z,54.01
2023-05-17T06:48:21.389Z,53.12
2023-05-17T06:51:24.411Z,52.94
2023-05-17T06:54:27.030Z,52.90
2023-05-17T06:57:29.690Z,52.36
2023-05-17T07:00:32.595Z,51.70
2023-05-17T07:03:37.156Z,51.50
2023-05-17T07:06:39.861Z,51.18
2023-05-17T07:09:42.734Z,51.98
2023-05-17T07:12:45.481Z,51.78
2023-05-17T07:15:48.190Z,50.15
2023-05-17T07:18:52.322Z,50.65
2023-05-17T07:21:55.377Z,49.52
2023-05-17T07:24:57.933Z,49.52
2023-05-17T07:28:00.654Z,48.54
2023-05-17T07:31:03.355Z,48.46
2023-05-17T07:34:07.452Z,47.44
2023-05-17T07:37:10.144Z,46.68
2023-05-17T07:40:13.641Z,47.00
2023-05-17T07:43:16.526Z,47.17
2023-05-17T07:46:19.362Z,45.93
2023-05-17T07:49:26.018Z,44.91
2023-05-17T07:52:28.625Z,44.64
2023-05-17T07:55:31.299Z,44.75
2023-05-17T07:58:34.012Z,43.61
2023-05-17T08:01:36.563Z,43.25
2023-05-17T08:04:41.981Z,43.19
2023-05-17T08:07:44.636Z,43.48
2023-05-17T08:10:47.218Z,42.90
2023-05-17T08:13:49.766Z,43.13
2023-05-17T08:16:52.569Z,43.52
2023-05-17T08:19:56.985Z,42.72
2023-05-17T08:22:59.763Z,41.88
2023-05-17T08:26:02.323Z,41.02
2023-05-17T08:29:05.631Z,41.49
2023-05-17T08:32:09.176Z,39.85
2023-05-17T08:35:13.212Z,40.01
2023-05-17T08:38:16.677Z,39.06
2023-05-17T08:41:21.496Z,39.88
2023-05-17T08:44:24.156Z,41.84
2023-05-17T08:47:33.973Z,43.56
2023-05-17T08:50:38.854Z,43.13
2023-05-17T08:53:42.682Z,43.09
2023-05-17T08:56:45.345Z,41.60
2023-05-17T08:59:48.757Z,40.81
2023-05-17T09:02:51.571Z,41.26
2023-05-17T09:05:55.740Z,41.23
2023-05-17T09:09:01.402Z,39.45
2023-05-17T09:12:04.393Z,38.90
2023-05-17T09:15:17.506Z,38.68
2023-05-17T09:18:20.253Z,38.40
2023-05-17T09:21:24.902Z,38.87
2023-05-17T09:24:31.526Z,38.12
2023-05-17T09:27:34.435Z,39.82
2023-05-17T09:30:39.447Z,41.71
2023-05-17T09:33:46.045Z,41.36
2023-05-17T09:36:50.067Z,40.29
2023-05-17T09:39:52.769Z,39.89
2023-05-17T09:42:56.182Z,38.62
2023-05-17T09:45:59.060Z,37.71
2023-05-17T09:49:03.287Z,37.09
2023-05-17T09:52:09.308Z,35.86
2023-05-17T09:55:13.065Z,35.22
2023-05-17T09:58:15.653Z,35.90
2023-05-17T10:01:18.586Z,35.72
2023-05-17T10:04:24.132Z,35.03
2023-05-17T10:07:28.141Z,34.38
2023-05-17T10:10:31.517Z,33.72
2023-05-17T10:13:36.436Z,33.51
2023-05-17T10:16:40.842Z,33.80
2023-05-17T10:19:44.499Z,34.69
2023-05-17T10:22:49.622Z,34.17
2023-05-17T10:25:52.755Z,33.06
2023-05-17T10:29:00.646Z,32.57
2023-05-17T10:32:05.957Z,31.96
2023-05-17T10:35:12.035Z,31.74
2023-05-17T10:38:16.401Z,30.79
2023-05-17T10:41:20.003Z,31.08
2023-05-17T10:44:23.371Z,30.61
2023-05-17T10:47:32.696Z,31.18
2023-05-17T10:50:43.047Z,29.64
2023-05-17T10:54:07.067Z,29.17
2023-05-17T10:57:09.847Z,30.45
2023-05-17T11:00:21.030Z,31.42
2023-05-17T11:03:28.755Z,32.01
2023-05-17T11:06:36.940Z,33.18
2023-05-17T11:09:41.742Z,33.47
2023-05-17T11:12:46.935Z,32.69
2023-05-17T11:16:04.145Z,32.84
2023-05-17T11:19:11.200Z,31.33
2023-05-17T11:22:16.880Z,31.57
2023-05-17T11:25:22.521Z,32.55
2023-05-17T11:28:25.236Z,33.17
2023-05-17T11:31:32.043Z,34.10
2023-05-17T11:34:35.178Z,35.07
2023-05-17T11:37:37.999Z,35.58
2023-05-17T11:40:42.362Z,37.24
2023-05-17T11:43:47.308Z,37.06
2023-05-17T11:46:50.375Z,36.74
2023-05-17T11:49:55.686Z,36.58
2023-05-17T11:53:00.169Z,36.30
2023-05-17T11:56:05.366Z,36.88
2023-05-17T11:59:07.992Z,36.47
2023-05-17T12:02:10.957Z,36.09
2023-05-17T12:05:20.884Z,35.75
2023-05-17T12:08:23.539Z,34.40
2023-05-17T12:11:27.855Z,33.56
2023-05-17T12:14:31.157Z,32.64
2023-05-17T12:17:38.605Z,31.85
2023-05-17T12:20:55.309Z,31.01
2023-05-17T12:23:57.951Z,31.30
2023-05-17T12:27:02.068Z,31.13
2023-05-17T12:30:15.780Z,31.29
2023-05-17T12:33:18.578Z,30.94
2023-05-17T12:36:22.496Z,29.32
2023-05-17T12:39:25.785Z,28.39
2023-05-17T12:42:29.934Z,29.47
2023-05-17T12:45:34.287Z,29.43
2023-05-17T12:48:37.215Z,27.74
2023-05-17T12:51:44.090Z,27.04
2023-05-17T12:54:47.603Z,27.72
2023-05-17T12:57:52.600Z,29.32
2023-05-17T13:00:59.972Z,30.19
2023-05-17T13:04:02.744Z,29.91
2023-05-17T13:07:06.588Z,30.31
2023-05-17T13:10:21.221Z,30.47
2023-05-17T13:13:25.344Z,31.18
2023-05-17T13:16:31.024Z,32.39
2023-05-17T13:19:35.813Z,31.53
2023-05-17T13:22:42.162Z,29.37
2023-05-17T13:25:44.859Z,28.50
2023-05-17T13:28:49.478Z,29.32
2023-05-17T13:31:52.533Z,29.51
2023-05-17T13:34:55.250Z,30.12
2023-05-17T13:37:58.124Z,29.86
2023-05-17T13:41:00.879Z,29.23
2023-05-17T13:44:04.965Z,28.11
2023-05-17T13:47:07.886Z,29.09
2023-05-17T13:50:12.099Z,28.63
2023-05-17T13:53:14.755Z,28.82
2023-05-17T13:56:17.315Z,27.96
2023-05-17T13:59:21.431Z,28.28
2023-05-17T14:02:24.184Z,27.35
2023-05-17T14:05:27.485Z,26.49
2023-05-17T14:08:29.967Z,25.93
2023-05-17T14:11:32.856Z,25.69
2023-05-17T14:14:36.790Z,25.43
2023-05-17T14:17:39.411Z,24.13
2023-05-17T14:20:42.004Z,24.14
2023-05-17T14:23:44.836Z,24.18
2023-05-17T14:26:47.521Z,24.34
2023-05-17T14:29:51.596Z,24.55
2023-05-17T14:32:54.387Z,24.31
2023-05-17T14:35:58.078Z,23.95
2023-05-17T14:39:00.680Z,25.16
2023-05-17T14:42:03.367Z,26.47
2023-05-17T14:45:09.015Z,27.55
2023-05-17T14:48:12.080Z,28.16
2023-05-17T14:51:14.731Z,28.44
2023-05-17T14:54:18.129Z,29.27
2023-05-17T14:57:21.520Z,29.12
2023-05-17T15:00:27.039Z,29.80
2023-05-17T15:03:29.715Z,30.81
2023-05-17T15:06:32.858Z,31.67
2023-05-17T15:09:41.350Z,32.82
2023-05-17T15:12:43.939Z,33.76
2023-05-17T15:15:48.353Z,35.75
2023-05-17T15:18:52.284Z,37.70
2023-05-17T15:21:56.854Z,37.61
2023-05-17T15:24:59.577Z,36.83
2023-05-17T15:28:02.204Z,36.30
2023-05-17T15:31:10.594Z,36.14
2023-05-17T15:34:13.498Z,36.07
2023-05-17T15:37:16.494Z,35.71
2023-05-17T15:40:21.515Z,34.92
2023-05-17T15:43:24.218Z,34.38
2023-05-17T15:46:28.217Z,32.45
2023-05-17T15:49:31.181Z,26.05
2023-05-17T15:52:33.864Z,22.73
2023-05-17T15:55:36.778Z,25.24
2023-05-17T15:58:39.465Z,26.42
2023-05-17T16:01:46.244Z,29.01
2023-05-17T16:04:48.999Z,30.51
2023-05-17T16:07:51.999Z,31.17
2023-05-17T16:10:54.691Z,29.01
2023-05-17T16:13:57.902Z,19.37
2023-05-17T16:17:05.659Z,15.46
2023-05-17T16:20:09.627Z,16.48
2023-05-17T16:23:12.844Z,20.40
2023-05-17T16:26:15.771Z,21.92
2023-05-17T16:29:18.588Z,24.12
2023-05-17T16:32:22.729Z,25.76
2023-05-17T16:35:25.615Z,25.24
2023-05-17T16:38:28.231Z,26.29
2023-05-17T16:41:33.413Z,25.35
2023-05-17T16:44:36.034Z,26.58
2023-05-17T16:47:40.044Z,21.50
2023-05-17T16:50:43.352Z,17.65
2023-05-17T16:53:45.903Z,15.42
2023-05-17T16:56:48.997Z,14.17
2023-05-17T16:59:52.102Z,15.01
2023-05-17T17:02:56.220Z,16.74
2023-05-17T17:05:59.073Z,19.06
2023-05-17T17:09:07.026Z,22.23
2023-05-17T17:12:23.663Z,24.01
2023-05-17T17:15:27.572Z,25.68
2023-05-17T17:18:31.866Z,26.66
2023-05-17T17:21:36.580Z,27.20
2023-05-17T17:24:39.552Z,28.10
2023-05-17T17:27:42.149Z,29.11
2023-05-17T17:30:44.801Z,29.65
2023-05-17T17:33:48.957Z,29.94
2023-05-17T17:36:51.561Z,29.82
2023-05-17T17:39:54.146Z,29.51
2023-05-17T17:42:56.960Z,29.68
2023-05-17T17:45:59.654Z,30.51
2023-05-17T17:49:04.186Z,31.09
2023-05-17T17:52:06.933Z,31.38
2023-05-17T17:55:12.940Z,32.52
2023-05-17T17:58:15.968Z,32.70
2023-05-17T18:01:18.761Z,32.95
2023-05-17T18:04:22.771Z,33.63
2023-05-17T18:07:26.990Z,34.03
2023-05-17T18:10:31.136Z,34.41
2023-05-17T18:13:33.947Z,35.17
2023-05-17T18:16:36.708Z,36.20
2023-05-17T18:19:40.956Z,36.02
2023-05-17T18:22:43.780Z,36.27
2023-05-17T18:25:46.973Z,36.91
2023-05-17T18:28:49.646Z,37.92
2023-05-17T18:31:53.033Z,38.47
2023-05-17T18:34:56.975Z,38.74
2023-05-17T18:38:00.713Z,39.66
2023-05-17T18:41:03.294Z,40.45
2023-05-17T18:44:06.426Z,41.60
2023-05-17T18:47:09.167Z,42.54
2023-05-17T18:50:13.207Z,43.40
2023-05-17T18:53:15.807Z,44.63
2023-05-17T18:56:22.780Z,44.71
2023-05-17T18:59:25.437Z,46.23
2023-05-17T19:02:28.574Z,45.84
2023-05-17T19:05:32.438Z,46.19
2023-05-17T19:08:35.934Z,47.07
2023-05-17T19:11:38.439Z,47.83
2023-05-17T19:14:41.250Z,48.40
2023-05-17T19:17:43.885Z,48.62
2023-05-17T19:20:47.981Z,49.76
2023-05-17T19:23:50.729Z,49.75
2023-05-17T19:26:53.634Z,50.10
2023-05-17T19:29:56.302Z,50.86
2023-05-17T19:32:58.864Z,51.21
2023-05-17T19:36:02.885Z,51.23
2023-05-17T19:39:05.605Z,51.51
2023-05-17T19:42:08.268Z,51.86
2023-05-17T19:45:11.839Z,51.81
2023-05-17T19:48:14.247Z,52.04
2023-05-17T19:51:18.161Z,52.25
2023-05-17T19:54:21.667Z,53.26
2023-05-17T19:57:24.237Z,53.91
2023-05-17T20:00:26.904Z,53.84
2023-05-17T20:03:29.598Z,54.08
2023-05-17T20:06:33.666Z,53.84
2023-05-17T20:09:36.478Z,53.95
2023-05-17T20:12:39.465Z,53.73
2023-05-17T20:15:42.317Z,53.52
2023-05-17T20:18:45.475Z,54.59
2023-05-17T20:21:49.550Z,54.94
2023-05-17T20:24:52.345Z,54.14
2023-05-17T20:27:57.990Z,54.68
2023-05-17T20:31:00.892Z,54.81
2023-05-17T20:34:04.336Z,55.70
2023-05-17T20:37:08.386Z,55.78
2023-05-17T20:40:11.740Z,55.87
2023-05-17T20:43:16.774Z,55.77
2023-05-17T20:46:19.643Z,56.21
2023-05-17T20:49:22.614Z,57.02
2023-05-17T20:55:32.356Z,57.84
2023-05-17T20:58:35.024Z,57.92
2023-05-17T21:01:37.737Z,57.62
2023-05-17T21:04:40.981Z,57.70
2023-05-17T21:07:46.618Z,57.68
2023-05-17T21:10:49.994Z,57.67
2023-05-17T21:13:52.563Z,57.53
2023-05-17T21:16:55.628Z,57.73
2023-05-17T21:19:58.234Z,57.88
2023-05-17T21:23:02.321Z,58.33
2023-05-17T21:26:06.943Z,58.40
2023-05-17T21:29:09.470Z,58.62
2023-05-17T21:32:12.161Z,58.92
2023-05-17T21:35:14.705Z,59.47
2023-05-17T21:38:18.793Z,59.54
2023-05-17T21:41:21.594Z,59.39
2023-05-17T21:44:24.434Z,59.82
2023-05-17T21:47:27.074Z,59.89
2023-05-17T21:50:30.850Z,60.24
2023-05-17T21:53:35.214Z,60.59
2023-05-17T21:56:37.838Z,60.83
2023-05-17T21:59:40.540Z,61.09
2023-05-17T22:02:44.935Z,61.21
2023-05-17T22:05:48.681Z,61.46
2023-05-17T22:08:52.582Z,61.39
2023-05-17T22:11:59.530Z,61.07
2023-05-17T22:15:02.318Z,61.32
2023-05-17T22:18:05.473Z,61.92
2023-05-17T22:21:08.916Z,62.43
2023-05-17T22:24:12.857Z,62.59
2023-05-17T22:27:15.462Z,62.33
2023-05-17T22:30:18.132Z,62.16
2023-05-17T22:33:21.852Z,62.68
2023-05-17T22:36:26.724Z,62.56
2023-05-17T22:39:30.838Z,62.48
2023-05-17T22:42:33.498Z,63.05
2023-05-17T22:45:36.168Z,63.21
2023-05-17T22:48:40.457Z,63.29
2023-05-17T22:51:43.289Z,63.42
2023-05-17T22:54:47.449Z,63.28
2023-05-17T22:57:50.076Z,63.37
2023-05-17T23:00:53.415Z,63.77
2023-05-17T23:03:56.502Z,64.02
2023-05-17T23:07:02.358Z,64.10
2023-05-17T23:10:08.584Z,64.61
2023-05-17T23:13:11.611Z,64.54
2023-05-17T23:16:14.694Z,64.98
2023-05-17T23:19:18.136Z,64.48
2023-05-17T23:22:20.970Z,65.13
2023-05-17T23:25:25.121Z,65.09
2023-05-17T23:28:27.840Z,66.18
2023-05-17T23:31:30.886Z,65.90
2023-05-17T23:34:33.502Z,65.89
2023-05-17T23:37:36.679Z,66.89
2023-05-17T23:40:40.958Z,66.40
2023-05-17T23:43:43.663Z,67.05
2023-05-17T23:46:46.303Z,66.43
2023-05-17T23:49:49.181Z,65.86
2023-05-17T23:52:51.845Z,65.63
2023-05-17T23:55:56.147Z,65.80
2023-05-17T23:58:58.803Z,65.51
